sensor_id;sensor_type;location;lat;lon;timestamp;temperature;humidity
13561;DHT22;6852;51.686;5.314;2023-05-09T00:00:30;15.90;99.90
13561;DHT22;6852;51.686;5.314;2023-05-09T00:02:57;15.90;99.90
13561;DHT22;6852;51.686;5.314;2023-05-09T00:05:24;15.80;99.90
13561;DHT22;6852;51.686;5.314;2023-05-09T00:07:51;16.00;99.90
13561;DHT22;6852;51.686;5.314;2023-05-09T00:10:18;16.00;99.90
13561;DHT22;6852;51.686;5.314;2023-05-09T00:12:45;16.10;99.90
13561;DHT22;6852;51.686;5.314;2023-05-09T00:15:12;16.00;99.90
13561;DHT22;6852;51.686;5.314;2023-05-09T00:17:40;15.70;99.90
13561;DHT22;6852;51.686;5.314;2023-05-09T00:20:07;15.80;99.90
13561;DHT22;6852;51.686;5.314;2023-05-09T00:22:38;15.90;99.90
13561;DHT22;6852;51.686;5.314;2023-05-09T00:25:07;16.00;99.90
13561;DHT22;6852;51.686;5.314;2023-05-09T00:27:35;16.00;99.90
13561;DHT22;6852;51.686;5.314;2023-05-09T00:30:05;15.90;99.90
13561;DHT22;6852;51.686;5.314;2023-05-09T00:32:32;15.80;99.90
13561;DHT22;6852;51.686;5.314;2023-05-09T00:34:59;15.70;99.90
13561;DHT22;6852;51.686;5.314;2023-05-09T00:37:28;15.70;99.90
13561;DHT22;6852;51.686;5.314;2023-05-09T00:39:56;15.70;99.90
13561;DHT22;6852;51.686;5.314;2023-05-09T00:42:23;15.90;99.90
13561;DHT22;6852;51.686;5.314;2023-05-09T00:44:49;15.90;99.90
13561;DHT22;6852;51.686;5.314;2023-05-09T00:47:16;15.70;99.90
13561;DHT22;6852;51.686;5.314;2023-05-09T00:49:43;15.60;99.90
13561;DHT22;6852;51.686;5.314;2023-05-09T00:52:10;15.60;99.90
13561;DHT22;6852;51.686;5.314;2023-05-09T00:54:37;15.70;99.90
13561;DHT22;6852;51.686;5.314;2023-05-09T00:57:04;15.70;99.90
13561;DHT22;6852;51.686;5.314;2023-05-09T00:59:31;15.90;99.90
13561;DHT22;6852;51.686;5.314;2023-05-09T01:01:58;15.90;99.90
13561;DHT22;6852;51.686;5.314;2023-05-09T01:04:24;15.90;99.90
13561;DHT22;6852;51.686;5.314;2023-05-09T01:07:12;15.80;99.90
13561;DHT22;6852;51.686;5.314;2023-05-09T01:12:40;15.90;99.90
13561;DHT22;6852;51.686;5.314;2023-05-09T01:15:17;15.90;99.90
13561;DHT22;6852;51.686;5.314;2023-05-09T01:17:58;15.90;99.90
13561;DHT22;6852;51.686;5.314;2023-05-09T01:20:34;15.90;99.90
13561;DHT22;6852;51.686;5.314;2023-05-09T01:29:33;15.70;99.90
13561;DHT22;6852;51.686;5.314;2023-05-09T01:31:26;15.70;99.90
13561;DHT22;6852;51.686;5.314;2023-05-09T01:33:57;15.70;99.90
13561;DHT22;6852;51.686;5.314;2023-05-09T01:36:28;15.80;99.90
13561;DHT22;6852;51.686;5.314;2023-05-09T01:38:56;15.80;99.90
13561;DHT22;6852;51.686;5.314;2023-05-09T01:41:24;15.80;99.90
13561;DHT22;6852;51.686;5.314;2023-05-09T01:43:54;15.90;99.90
13561;DHT22;6852;51.686;5.314;2023-05-09T01:46:24;15.80;99.90
13561;DHT22;6852;51.686;5.314;2023-05-09T01:48:51;15.70;99.90
13561;DHT22;6852;51.686;5.314;2023-05-09T01:51:19;15.60;99.90
13561;DHT22;6852;51.686;5.314;2023-05-09T01:53:47;15.80;99.90
13561;DHT22;6852;51.686;5.314;2023-05-09T01:56:16;15.70;99.90
13561;DHT22;6852;51.686;5.314;2023-05-09T01:58:45;15.70;99.90
13561;DHT22;6852;51.686;5.314;2023-05-09T02:01:14;15.70;99.90
13561;DHT22;6852;51.686;5.314;2023-05-09T02:03:42;15.70;99.90
13561;DHT22;6852;51.686;5.314;2023-05-09T02:06:11;15.60;99.90
13561;DHT22;6852;51.686;5.314;2023-05-09T02:08:39;15.60;99.90
13561;DHT22;6852;51.686;5.314;2023-05-09T02:11:06;15.60;99.90
13561;DHT22;6852;51.686;5.314;2023-05-09T02:13:33;15.70;99.90
13561;DHT22;6852;51.686;5.314;2023-05-09T02:16:00;15.60;99.90
13561;DHT22;6852;51.686;5.314;2023-05-09T02:18:27;15.70;99.90
13561;DHT22;6852;51.686;5.314;2023-05-09T02:20:55;15.60;99.90
13561;DHT22;6852;51.686;5.314;2023-05-09T02:23:22;15.40;99.90
13561;DHT22;6852;51.686;5.314;2023-05-09T02:25:49;15.30;99.90
13561;DHT22;6852;51.686;5.314;2023-05-09T02:28:17;15.10;99.90
13561;DHT22;6852;51.686;5.314;2023-05-09T02:30:46;15.10;99.90
13561;DHT22;6852;51.686;5.314;2023-05-09T02:33:14;15.00;99.90
13561;DHT22;6852;51.686;5.314;2023-05-09T02:35:44;15.00;99.90
13561;DHT22;6852;51.686;5.314;2023-05-09T02:38:12;15.00;99.90
13561;DHT22;6852;51.686;5.314;2023-05-09T02:40:41;15.20;99.90
13561;DHT22;6852;51.686;5.314;2023-05-09T02:43:09;15.20;99.90
13561;DHT22;6852;51.686;5.314;2023-05-09T02:45:36;15.40;99.90
13561;DHT22;6852;51.686;5.314;2023-05-09T02:48:03;15.40;99.90
13561;DHT22;6852;51.686;5.314;2023-05-09T02:50:34;15.50;99.90
13561;DHT22;6852;51.686;5.314;2023-05-09T02:53:04;15.50;99.90
13561;DHT22;6852;51.686;5.314;2023-05-09T02:55:31;15.60;99.90
13561;DHT22;6852;51.686;5.314;2023-05-09T02:57:58;15.60;99.90
13561;DHT22;6852;51.686;5.314;2023-05-09T03:00:39;15.60;99.90
13561;DHT22;6852;51.686;5.314;2023-05-09T03:03:06;15.50;99.90
13561;DHT22;6852;51.686;5.314;2023-05-09T03:05:33;15.50;99.90
13561;DHT22;6852;51.686;5.314;2023-05-09T03:08:00;15.60;99.90
13561;DHT22;6852;51.686;5.314;2023-05-09T03:10:27;15.60;99.90
13561;DHT22;6852;51.686;5.314;2023-05-09T03:12:54;15.60;99.90
13561;DHT22;6852;51.686;5.314;2023-05-09T03:15:22;15.50;99.90
13561;DHT22;6852;51.686;5.314;2023-05-09T03:17:49;15.40;99.90
13561;DHT22;6852;51.686;5.314;2023-05-09T03:20:16;15.50;99.90
13561;DHT22;6852;51.686;5.314;2023-05-09T03:22:43;15.50;99.90
13561;DHT22;6852;51.686;5.314;2023-05-09T03:25:10;15.50;99.90
13561;DHT22;6852;51.686;5.314;2023-05-09T03:27:37;15.50;99.90
13561;DHT22;6852;51.686;5.314;2023-05-09T03:30:04;15.30;99.90
13561;DHT22;6852;51.686;5.314;2023-05-09T03:32:32;15.30;99.90
13561;DHT22;6852;51.686;5.314;2023-05-09T03:34:59;15.40;99.90
13561;DHT22;6852;51.686;5.314;2023-05-09T03:37:26;15.30;99.90
13561;DHT22;6852;51.686;5.314;2023-05-09T03:39:53;15.40;99.90
13561;DHT22;6852;51.686;5.314;2023-05-09T03:42:20;15.40;99.90
13561;DHT22;6852;51.686;5.314;2023-05-09T03:44:47;15.40;99.90
13561;DHT22;6852;51.686;5.314;2023-05-09T03:47:14;15.40;99.90
13561;DHT22;6852;51.686;5.314;2023-05-09T03:49:41;15.50;99.90
13561;DHT22;6852;51.686;5.314;2023-05-09T03:52:08;15.40;99.90
13561;DHT22;6852;51.686;5.314;2023-05-09T03:54:35;15.50;99.90
13561;DHT22;6852;51.686;5.314;2023-05-09T03:57:02;15.50;99.90
13561;DHT22;6852;51.686;5.314;2023-05-09T03:59:29;15.50;99.90
13561;DHT22;6852;51.686;5.314;2023-05-09T04:01:56;15.40;99.90
13561;DHT22;6852;51.686;5.314;2023-05-09T04:04:23;15.40;99.90
13561;DHT22;6852;51.686;5.314;2023-05-09T04:06:49;15.40;99.90
13561;DHT22;6852;51.686;5.314;2023-05-09T04:09:17;15.50;99.90
13561;DHT22;6852;51.686;5.314;2023-05-09T04:11:43;15.40;99.90
13561;DHT22;6852;51.686;5.314;2023-05-09T04:14:10;15.50;99.90
13561;DHT22;6852;51.686;5.314;2023-05-09T04:16:37;15.50;99.90
13561;DHT22;6852;51.686;5.314;2023-05-09T04:19:04;15.30;99.90
13561;DHT22;6852;51.686;5.314;2023-05-09T04:21:32;15.40;99.90
13561;DHT22;6852;51.686;5.314;2023-05-09T04:23:59;15.40;99.90
13561;DHT22;6852;51.686;5.314;2023-05-09T04:26:26;15.40;99.90
13561;DHT22;6852;51.686;5.314;2023-05-09T04:28:53;15.40;99.90
13561;DHT22;6852;51.686;5.314;2023-05-09T04:31:20;15.30;99.90
13561;DHT22;6852;51.686;5.314;2023-05-09T04:33:48;15.40;99.90
13561;DHT22;6852;51.686;5.314;2023-05-09T04:36:15;15.40;99.90
13561;DHT22;6852;51.686;5.314;2023-05-09T04:38:42;15.50;99.90
13561;DHT22;6852;51.686;5.314;2023-05-09T04:41:09;15.50;99.90
13561;DHT22;6852;51.686;5.314;2023-05-09T04:43:36;15.50;99.90
13561;DHT22;6852;51.686;5.314;2023-05-09T04:46:03;15.50;99.90
13561;DHT22;6852;51.686;5.314;2023-05-09T04:48:30;15.50;99.90
13561;DHT22;6852;51.686;5.314;2023-05-09T04:50:57;15.50;99.90
13561;DHT22;6852;51.686;5.314;2023-05-09T04:53:23;15.50;99.90
13561;DHT22;6852;51.686;5.314;2023-05-09T04:55:51;15.60;99.90
13561;DHT22;6852;51.686;5.314;2023-05-09T04:58:18;15.50;99.90
13561;DHT22;6852;51.686;5.314;2023-05-09T05:00:45;15.50;99.90
13561;DHT22;6852;51.686;5.314;2023-05-09T05:03:12;15.40;99.90
13561;DHT22;6852;51.686;5.314;2023-05-09T05:05:39;15.50;99.90
13561;DHT22;6852;51.686;5.314;2023-05-09T05:08:07;15.60;99.90
13561;DHT22;6852;51.686;5.314;2023-05-09T05:10:34;15.60;99.90
13561;DHT22;6852;51.686;5.314;2023-05-09T05:13:01;15.50;99.90
13561;DHT22;6852;51.686;5.314;2023-05-09T05:15:28;15.60;99.90
13561;DHT22;6852;51.686;5.314;2023-05-09T05:17:55;15.70;99.90
13561;DHT22;6852;51.686;5.314;2023-05-09T05:20:22;15.60;99.90
13561;DHT22;6852;51.686;5.314;2023-05-09T05:22:49;15.60;99.90
13561;DHT22;6852;51.686;5.314;2023-05-09T05:25:16;15.60;99.90
13561;DHT22;6852;51.686;5.314;2023-05-09T05:27:44;15.60;99.90
13561;DHT22;6852;51.686;5.314;2023-05-09T05:30:11;15.60;99.90
13561;DHT22;6852;51.686;5.314;2023-05-09T05:32:41;15.60;99.90
13561;DHT22;6852;51.686;5.314;2023-05-09T05:35:09;15.70;99.90
13561;DHT22;6852;51.686;5.314;2023-05-09T05:37:40;15.80;99.90
13561;DHT22;6852;51.686;5.314;2023-05-09T05:40:07;15.70;99.90
13561;DHT22;6852;51.686;5.314;2023-05-09T05:42:34;15.80;99.90
13561;DHT22;6852;51.686;5.314;2023-05-09T05:45:01;15.90;99.90
13561;DHT22;6852;51.686;5.314;2023-05-09T05:47:32;15.80;99.90
13561;DHT22;6852;51.686;5.314;2023-05-09T05:50:01;15.80;99.90
13561;DHT22;6852;51.686;5.314;2023-05-09T05:52:28;15.80;99.90
13561;DHT22;6852;51.686;5.314;2023-05-09T05:54:55;15.80;99.90
13561;DHT22;6852;51.686;5.314;2023-05-09T05:57:22;15.80;99.90
13561;DHT22;6852;51.686;5.314;2023-05-09T05:59:49;15.80;99.90
13561;DHT22;6852;51.686;5.314;2023-05-09T06:02:17;15.80;99.90
13561;DHT22;6852;51.686;5.314;2023-05-09T06:04:44;15.80;99.90
13561;DHT22;6852;51.686;5.314;2023-05-09T06:07:11;15.90;99.90
13561;DHT22;6852;51.686;5.314;2023-05-09T06:09:39;15.80;99.90
13561;DHT22;6852;51.686;5.314;2023-05-09T06:12:06;15.80;99.90
13561;DHT22;6852;51.686;5.314;2023-05-09T06:14:33;15.90;99.90
13561;DHT22;6852;51.686;5.314;2023-05-09T06:17:00;15.80;99.90
13561;DHT22;6852;51.686;5.314;2023-05-09T06:19:27;15.90;99.90
13561;DHT22;6852;51.686;5.314;2023-05-09T06:21:54;15.90;99.90
13561;DHT22;6852;51.686;5.314;2023-05-09T06:24:20;16.00;99.90
13561;DHT22;6852;51.686;5.314;2023-05-09T06:27:01;16.00;99.90
13561;DHT22;6852;51.686;5.314;2023-05-09T06:29:28;16.00;99.90
13561;DHT22;6852;51.686;5.314;2023-05-09T06:31:54;15.90;99.90
13561;DHT22;6852;51.686;5.314;2023-05-09T06:34:21;15.90;99.90
13561;DHT22;6852;51.686;5.314;2023-05-09T06:36:48;16.00;99.90
13561;DHT22;6852;51.686;5.314;2023-05-09T06:39:15;16.00;99.90
13561;DHT22;6852;51.686;5.314;2023-05-09T06:41:42;15.90;99.90
13561;DHT22;6852;51.686;5.314;2023-05-09T06:44:08;16.00;99.90
13561;DHT22;6852;51.686;5.314;2023-05-09T06:46:35;15.90;99.90
13561;DHT22;6852;51.686;5.314;2023-05-09T06:49:02;16.00;99.90
13561;DHT22;6852;51.686;5.314;2023-05-09T06:51:31;16.00;99.90
13561;DHT22;6852;51.686;5.314;2023-05-09T06:53:58;15.90;99.90
13561;DHT22;6852;51.686;5.314;2023-05-09T06:56:24;16.00;99.90
13561;DHT22;6852;51.686;5.314;2023-05-09T06:58:52;16.10;99.90
13561;DHT22;6852;51.686;5.314;2023-05-09T07:01:19;16.20;99.90
13561;DHT22;6852;51.686;5.314;2023-05-09T07:03:46;16.10;99.90
13561;DHT22;6852;51.686;5.314;2023-05-09T07:06:13;16.10;99.90
13561;DHT22;6852;51.686;5.314;2023-05-09T07:08:40;16.10;99.90
13561;DHT22;6852;51.686;5.314;2023-05-09T07:11:07;15.90;99.90
13561;DHT22;6852;51.686;5.314;2023-05-09T07:13:34;15.70;99.90
13561;DHT22;6852;51.686;5.314;2023-05-09T07:16:01;15.80;99.90
13561;DHT22;6852;51.686;5.314;2023-05-09T07:18:28;15.80;99.90
13561;DHT22;6852;51.686;5.314;2023-05-09T07:20:55;15.70;99.90
13561;DHT22;6852;51.686;5.314;2023-05-09T07:23:22;15.60;99.90
13561;DHT22;6852;51.686;5.314;2023-05-09T07:25:49;15.70;99.90
13561;DHT22;6852;51.686;5.314;2023-05-09T07:28:21;15.50;99.90
13561;DHT22;6852;51.686;5.314;2023-05-09T07:30:47;15.40;99.90
13561;DHT22;6852;51.686;5.314;2023-05-09T07:33:14;15.40;99.90
13561;DHT22;6852;51.686;5.314;2023-05-09T07:35:41;15.30;99.90
13561;DHT22;6852;51.686;5.314;2023-05-09T07:38:08;15.30;99.90
13561;DHT22;6852;51.686;5.314;2023-05-09T07:40:36;15.40;99.90
13561;DHT22;6852;51.686;5.314;2023-05-09T07:43:04;15.50;99.90
13561;DHT22;6852;51.686;5.314;2023-05-09T07:45:31;15.40;99.90
13561;DHT22;6852;51.686;5.314;2023-05-09T07:47:58;15.30;99.90
13561;DHT22;6852;51.686;5.314;2023-05-09T07:50:25;15.40;99.90
13561;DHT22;6852;51.686;5.314;2023-05-09T07:52:51;15.40;99.90
13561;DHT22;6852;51.686;5.314;2023-05-09T07:55:18;15.20;99.90
13561;DHT22;6852;51.686;5.314;2023-05-09T07:57:45;15.20;99.90
13561;DHT22;6852;51.686;5.314;2023-05-09T08:00:12;15.20;99.90
13561;DHT22;6852;51.686;5.314;2023-05-09T08:02:40;15.30;99.90
13561;DHT22;6852;51.686;5.314;2023-05-09T08:05:08;15.20;99.90
13561;DHT22;6852;51.686;5.314;2023-05-09T08:07:37;15.10;99.90
13561;DHT22;6852;51.686;5.314;2023-05-09T08:10:04;15.20;99.90
13561;DHT22;6852;51.686;5.314;2023-05-09T08:12:31;15.10;99.90
13561;DHT22;6852;51.686;5.314;2023-05-09T08:14:58;15.30;99.90
13561;DHT22;6852;51.686;5.314;2023-05-09T08:17:26;15.20;99.90
13561;DHT22;6852;51.686;5.314;2023-05-09T08:19:53;15.00;99.90
13561;DHT22;6852;51.686;5.314;2023-05-09T08:22:19;15.30;99.90
13561;DHT22;6852;51.686;5.314;2023-05-09T08:24:46;15.10;99.90
13561;DHT22;6852;51.686;5.314;2023-05-09T08:27:14;15.20;99.90
13561;DHT22;6852;51.686;5.314;2023-05-09T08:29:42;15.20;99.90
13561;DHT22;6852;51.686;5.314;2023-05-09T08:32:09;15.30;99.90
13561;DHT22;6852;51.686;5.314;2023-05-09T08:34:35;15.20;99.90
13561;DHT22;6852;51.686;5.314;2023-05-09T08:37:03;15.20;99.90
13561;DHT22;6852;51.686;5.314;2023-05-09T08:39:30;15.40;99.90
13561;DHT22;6852;51.686;5.314;2023-05-09T08:41:58;15.30;99.90
13561;DHT22;6852;51.686;5.314;2023-05-09T08:44:27;15.30;99.90
13561;DHT22;6852;51.686;5.314;2023-05-09T08:46:57;15.40;99.90
13561;DHT22;6852;51.686;5.314;2023-05-09T08:49:25;15.30;99.90
13561;DHT22;6852;51.686;5.314;2023-05-09T08:51:52;15.40;99.90
13561;DHT22;6852;51.686;5.314;2023-05-09T08:54:20;15.30;99.90
13561;DHT22;6852;51.686;5.314;2023-05-09T08:56:49;15.40;99.90
13561;DHT22;6852;51.686;5.314;2023-05-09T08:59:17;15.40;99.90
13561;DHT22;6852;51.686;5.314;2023-05-09T09:01:45;15.30;99.90
13561;DHT22;6852;51.686;5.314;2023-05-09T09:04:12;15.40;99.90
13561;DHT22;6852;51.686;5.314;2023-05-09T09:06:39;15.40;99.90
13561;DHT22;6852;51.686;5.314;2023-05-09T09:09:07;15.20;99.90
13561;DHT22;6852;51.686;5.314;2023-05-09T09:11:39;15.20;99.90
13561;DHT22;6852;51.686;5.314;2023-05-09T09:14:18;15.20;99.90
13561;DHT22;6852;51.686;5.314;2023-05-09T09:16:49;15.20;99.90
13561;DHT22;6852;51.686;5.314;2023-05-09T09:19:17;15.10;99.90
13561;DHT22;6852;51.686;5.314;2023-05-09T09:21:45;15.10;99.90
13561;DHT22;6852;51.686;5.314;2023-05-09T09:24:21;15.20;99.90
13561;DHT22;6852;51.686;5.314;2023-05-09T09:26:50;15.40;99.90
13561;DHT22;6852;51.686;5.314;2023-05-09T09:29:18;15.50;99.90
13561;DHT22;6852;51.686;5.314;2023-05-09T09:31:47;15.60;99.90
13561;DHT22;6852;51.686;5.314;2023-05-09T09:34:22;15.40;99.90
13561;DHT22;6852;51.686;5.314;2023-05-09T09:36:49;15.40;99.90
13561;DHT22;6852;51.686;5.314;2023-05-09T09:39:16;15.50;99.90
13561;DHT22;6852;51.686;5.314;2023-05-09T09:41:43;15.50;99.90
13561;DHT22;6852;51.686;5.314;2023-05-09T09:44:14;15.60;99.90
13561;DHT22;6852;51.686;5.314;2023-05-09T09:46:54;15.60;99.90
13561;DHT22;6852;51.686;5.314;2023-05-09T09:49:23;15.70;99.90
13561;DHT22;6852;51.686;5.314;2023-05-09T09:51:55;15.80;99.90
13561;DHT22;6852;51.686;5.314;2023-05-09T09:54:25;15.70;99.90
13561;DHT22;6852;51.686;5.314;2023-05-09T09:56:53;15.70;99.90
13561;DHT22;6852;51.686;5.314;2023-05-09T09:59:25;15.70;99.90
13561;DHT22;6852;51.686;5.314;2023-05-09T10:04:23;15.70;99.90
13561;DHT22;6852;51.686;5.314;2023-05-09T10:06:54;15.80;99.90
13561;DHT22;6852;51.686;5.314;2023-05-09T10:09:22;15.80;99.90
13561;DHT22;6852;51.686;5.314;2023-05-09T10:11:51;15.70;99.90
13561;DHT22;6852;51.686;5.314;2023-05-09T10:14:20;15.60;99.90
13561;DHT22;6852;51.686;5.314;2023-05-09T10:16:48;15.60;99.90
13561;DHT22;6852;51.686;5.314;2023-05-09T10:19:20;15.50;99.90
13561;DHT22;6852;51.686;5.314;2023-05-09T10:21:55;15.50;99.90
13561;DHT22;6852;51.686;5.314;2023-05-09T10:24:41;15.60;99.90
13561;DHT22;6852;51.686;5.314;2023-05-09T10:27:11;15.60;99.90
13561;DHT22;6852;51.686;5.314;2023-05-09T10:29:48;15.50;99.90
13561;DHT22;6852;51.686;5.314;2023-05-09T10:32:24;15.70;99.90
13561;DHT22;6852;51.686;5.314;2023-05-09T10:34:57;15.80;99.90
13561;DHT22;6852;51.686;5.314;2023-05-09T10:37:27;15.80;99.90
13561;DHT22;6852;51.686;5.314;2023-05-09T10:39:54;15.80;99.90
13561;DHT22;6852;51.686;5.314;2023-05-09T10:42:22;15.80;99.90
13561;DHT22;6852;51.686;5.314;2023-05-09T10:44:54;15.70;99.90
13561;DHT22;6852;51.686;5.314;2023-05-09T10:47:24;15.70;99.90
13561;DHT22;6852;51.686;5.314;2023-05-09T10:49:52;15.60;99.90
13561;DHT22;6852;51.686;5.314;2023-05-09T10:52:23;15.70;99.90
13561;DHT22;6852;51.686;5.314;2023-05-09T10:55:00;15.70;99.90
13561;DHT22;6852;51.686;5.314;2023-05-09T10:57:29;15.80;99.90
13561;DHT22;6852;51.686;5.314;2023-05-09T10:59:57;15.70;99.90
13561;DHT22;6852;51.686;5.314;2023-05-09T11:02:24;15.70;99.90
13561;DHT22;6852;51.686;5.314;2023-05-09T11:05:17;15.70;99.90
13561;DHT22;6852;51.686;5.314;2023-05-09T11:07:44;15.70;99.90
13561;DHT22;6852;51.686;5.314;2023-05-09T11:10:17;15.60;99.90
13561;DHT22;6852;51.686;5.314;2023-05-09T11:12:55;15.70;99.90
13561;DHT22;6852;51.686;5.314;2023-05-09T11:15:24;15.60;99.90
13561;DHT22;6852;51.686;5.314;2023-05-09T11:18:06;15.50;99.90
13561;DHT22;6852;51.686;5.314;2023-05-09T11:20:34;15.50;99.90
13561;DHT22;6852;51.686;5.314;2023-05-09T11:23:05;15.60;99.90
13561;DHT22;6852;51.686;5.314;2023-05-09T11:25:34;15.40;99.90
13561;DHT22;6852;51.686;5.314;2023-05-09T11:28:02;15.30;99.90
13561;DHT22;6852;51.686;5.314;2023-05-09T11:30:40;15.30;99.90
13561;DHT22;6852;51.686;5.314;2023-05-09T11:33:26;15.40;99.90
13561;DHT22;6852;51.686;5.314;2023-05-09T11:36:17;15.50;99.90
13561;DHT22;6852;51.686;5.314;2023-05-09T11:38:47;15.30;99.90
13561;DHT22;6852;51.686;5.314;2023-05-09T11:41:14;15.40;99.90
13561;DHT22;6852;51.686;5.314;2023-05-09T11:43:42;15.40;99.90
13561;DHT22;6852;51.686;5.314;2023-05-09T11:46:12;15.30;99.90
13561;DHT22;6852;51.686;5.314;2023-05-09T11:48:39;15.30;99.90
13561;DHT22;6852;51.686;5.314;2023-05-09T11:51:15;15.40;99.90
13561;DHT22;6852;51.686;5.314;2023-05-09T11:53:45;15.30;99.90
13561;DHT22;6852;51.686;5.314;2023-05-09T11:56:13;15.20;99.90
13561;DHT22;6852;51.686;5.314;2023-05-09T11:58:40;15.30;99.90
13561;DHT22;6852;51.686;5.314;2023-05-09T12:01:07;15.30;99.90
13561;DHT22;6852;51.686;5.314;2023-05-09T12:03:43;15.30;99.90
13561;DHT22;6852;51.686;5.314;2023-05-09T12:06:17;15.20;99.90
13561;DHT22;6852;51.686;5.314;2023-05-09T12:08:45;15.30;99.90
13561;DHT22;6852;51.686;5.314;2023-05-09T12:11:13;15.30;99.90
13561;DHT22;6852;51.686;5.314;2023-05-09T12:13:48;15.40;99.90
13561;DHT22;6852;51.686;5.314;2023-05-09T12:16:16;15.60;99.90
13561;DHT22;6852;51.686;5.314;2023-05-09T12:18:48;15.40;99.90
13561;DHT22;6852;51.686;5.314;2023-05-09T12:21:16;15.40;99.90
13561;DHT22;6852;51.686;5.314;2023-05-09T12:23:44;15.30;99.90
13561;DHT22;6852;51.686;5.314;2023-05-09T12:26:15;15.30;99.90
13561;DHT22;6852;51.686;5.314;2023-05-09T12:28:42;15.40;99.90
13561;DHT22;6852;51.686;5.314;2023-05-09T12:31:09;15.30;99.90
13561;DHT22;6852;51.686;5.314;2023-05-09T12:33:37;15.40;99.90
13561;DHT22;6852;51.686;5.314;2023-05-09T12:36:10;15.40;99.90
13561;DHT22;6852;51.686;5.314;2023-05-09T12:38:39;15.10;99.90
13561;DHT22;6852;51.686;5.314;2023-05-09T12:41:07;15.10;99.90
13561;DHT22;6852;51.686;5.314;2023-05-09T12:43:54;15.00;99.90
13561;DHT22;6852;51.686;5.314;2023-05-09T12:46:21;15.00;99.90
13561;DHT22;6852;51.686;5.314;2023-05-09T12:48:49;15.00;99.90
13561;DHT22;6852;51.686;5.314;2023-05-09T12:51:19;15.00;99.90
13561;DHT22;6852;51.686;5.314;2023-05-09T12:53:47;15.10;99.90
13561;DHT22;6852;51.686;5.314;2023-05-09T12:56:20;15.10;99.90
13561;DHT22;6852;51.686;5.314;2023-05-09T12:58:53;15.10;99.90
13561;DHT22;6852;51.686;5.314;2023-05-09T13:01:27;15.20;99.90
13561;DHT22;6852;51.686;5.314;2023-05-09T13:04:03;15.20;99.90
13561;DHT22;6852;51.686;5.314;2023-05-09T13:06:30;15.20;99.90
13561;DHT22;6852;51.686;5.314;2023-05-09T13:09:02;15.40;99.90
13561;DHT22;6852;51.686;5.314;2023-05-09T13:11:31;15.40;99.90
13561;DHT22;6852;51.686;5.314;2023-05-09T13:13:58;15.50;99.90
13561;DHT22;6852;51.686;5.314;2023-05-09T13:16:25;15.40;99.90
13561;DHT22;6852;51.686;5.314;2023-05-09T13:18:52;15.50;99.90
13561;DHT22;6852;51.686;5.314;2023-05-09T13:21:19;15.30;99.90
13561;DHT22;6852;51.686;5.314;2023-05-09T13:23:46;15.40;99.90
13561;DHT22;6852;51.686;5.314;2023-05-09T13:26:15;15.40;99.90
13561;DHT22;6852;51.686;5.314;2023-05-09T13:28:43;15.50;99.90
13561;DHT22;6852;51.686;5.314;2023-05-09T13:31:09;15.40;99.90
13561;DHT22;6852;51.686;5.314;2023-05-09T13:33:36;15.30;99.90
13561;DHT22;6852;51.686;5.314;2023-05-09T13:36:04;15.30;99.90
13561;DHT22;6852;51.686;5.314;2023-05-09T13:38:31;15.40;99.90
13561;DHT22;6852;51.686;5.314;2023-05-09T13:41:02;15.40;99.90
13561;DHT22;6852;51.686;5.314;2023-05-09T13:43:29;15.30;99.90
13561;DHT22;6852;51.686;5.314;2023-05-09T13:45:56;15.20;99.90
13561;DHT22;6852;51.686;5.314;2023-05-09T13:48:23;15.20;99.90
13561;DHT22;6852;51.686;5.314;2023-05-09T13:50:50;15.00;99.90
13561;DHT22;6852;51.686;5.314;2023-05-09T13:53:17;15.00;99.90
13561;DHT22;6852;51.686;5.314;2023-05-09T13:55:44;15.10;99.90
13561;DHT22;6852;51.686;5.314;2023-05-09T13:58:11;15.00;99.90
13561;DHT22;6852;51.686;5.314;2023-05-09T14:00:38;14.90;99.90
13561;DHT22;6852;51.686;5.314;2023-05-09T14:03:05;15.10;99.90
13561;DHT22;6852;51.686;5.314;2023-05-09T14:05:32;15.00;99.90
13561;DHT22;6852;51.686;5.314;2023-05-09T14:07:59;15.00;99.90
13561;DHT22;6852;51.686;5.314;2023-05-09T14:10:27;15.10;99.90
13561;DHT22;6852;51.686;5.314;2023-05-09T14:12:54;15.20;99.90
13561;DHT22;6852;51.686;5.314;2023-05-09T14:15:22;15.20;99.90
13561;DHT22;6852;51.686;5.314;2023-05-09T14:17:49;15.20;99.90
13561;DHT22;6852;51.686;5.314;2023-05-09T14:20:16;15.20;99.90
13561;DHT22;6852;51.686;5.314;2023-05-09T14:22:43;15.10;99.90
13561;DHT22;6852;51.686;5.314;2023-05-09T14:25:10;15.10;99.90
13561;DHT22;6852;51.686;5.314;2023-05-09T14:27:37;14.90;99.90
13561;DHT22;6852;51.686;5.314;2023-05-09T14:30:05;14.90;99.90
13561;DHT22;6852;51.686;5.314;2023-05-09T14:32:32;14.90;99.90
13561;DHT22;6852;51.686;5.314;2023-05-09T14:34:59;14.90;99.90
13561;DHT22;6852;51.686;5.314;2023-05-09T14:37:26;14.90;99.90
13561;DHT22;6852;51.686;5.314;2023-05-09T14:39:53;14.90;99.90
13561;DHT22;6852;51.686;5.314;2023-05-09T14:42:19;15.00;99.90
13561;DHT22;6852;51.686;5.314;2023-05-09T14:44:47;15.00;99.90
13561;DHT22;6852;51.686;5.314;2023-05-09T14:47:13;15.00;99.90
13561;DHT22;6852;51.686;5.314;2023-05-09T14:49:42;15.00;99.90
13561;DHT22;6852;51.686;5.314;2023-05-09T14:52:09;15.20;99.90
13561;DHT22;6852;51.686;5.314;2023-05-09T14:54:36;15.30;99.90
13561;DHT22;6852;51.686;5.314;2023-05-09T14:57:03;15.30;99.90
13561;DHT22;6852;51.686;5.314;2023-05-09T14:59:32;15.20;99.90
13561;DHT22;6852;51.686;5.314;2023-05-09T15:02:02;15.30;99.90
13561;DHT22;6852;51.686;5.314;2023-05-09T15:04:29;15.30;99.90
13561;DHT22;6852;51.686;5.314;2023-05-09T15:06:57;15.20;99.90
13561;DHT22;6852;51.686;5.314;2023-05-09T15:09:24;15.20;99.90
13561;DHT22;6852;51.686;5.314;2023-05-09T15:11:52;15.30;99.90
13561;DHT22;6852;51.686;5.314;2023-05-09T15:14:20;15.30;99.90
13561;DHT22;6852;51.686;5.314;2023-05-09T15:16:47;15.30;99.90
13561;DHT22;6852;51.686;5.314;2023-05-09T15:19:14;15.40;99.90
13561;DHT22;6852;51.686;5.314;2023-05-09T15:21:41;15.40;99.90
13561;DHT22;6852;51.686;5.314;2023-05-09T15:24:08;15.40;99.90
13561;DHT22;6852;51.686;5.314;2023-05-09T15:26:35;15.30;99.90
13561;DHT22;6852;51.686;5.314;2023-05-09T15:29:01;15.30;99.90
13561;DHT22;6852;51.686;5.314;2023-05-09T15:31:31;15.30;99.90
13561;DHT22;6852;51.686;5.314;2023-05-09T15:33:59;15.40;99.90
13561;DHT22;6852;51.686;5.314;2023-05-09T15:36:27;15.30;99.90
13561;DHT22;6852;51.686;5.314;2023-05-09T15:38:55;15.20;99.90
13561;DHT22;6852;51.686;5.314;2023-05-09T15:41:22;15.10;99.90
13561;DHT22;6852;51.686;5.314;2023-05-09T15:43:50;15.30;99.90
13561;DHT22;6852;51.686;5.314;2023-05-09T15:46:17;15.40;99.90
13561;DHT22;6852;51.686;5.314;2023-05-09T15:48:44;15.20;99.90
13561;DHT22;6852;51.686;5.314;2023-05-09T15:51:11;15.30;99.90
13561;DHT22;6852;51.686;5.314;2023-05-09T15:53:39;15.50;99.90
13561;DHT22;6852;51.686;5.314;2023-05-09T15:56:07;15.20;99.90
13561;DHT22;6852;51.686;5.314;2023-05-09T15:58:34;15.10;99.90
13561;DHT22;6852;51.686;5.314;2023-05-09T16:01:01;15.10;99.90
13561;DHT22;6852;51.686;5.314;2023-05-09T16:03:32;15.20;99.90